Time;durP1;ratioP1;P1;durP2;ratioP2;P2;SDS_P1;SDS_P2;PMS_P1;PMS_P2;Temp;Humidity;BMP_temperature;BMP_pressure;BME280_temperature;BME280_humidity;BME280_pressure;Samples;Min_cycle;Max_cycle;Signal;HPM_P1;HPM_P2
2023/06/23 00:01:22;;;;;;;10.47;9.27;;;;;;;14.59;100.00;101687.44;5223808;28;20034;-67
2023/06/23 00:03:54;;;;;;;12.95;10.20;;;;;;;14.54;100.00;101689.25;5224807;28;20034;-68
2023/06/23 00:06:26;;;;;;;11.90;10.00;;;;;;;14.53;100.00;101687.50;5224579;28;20048;-67
2023/06/23 00:08:57;;;;;;;15.52;10.65;;;;;;;14.49;100.00;101695.44;5224840;28;20034;-67
2023/06/23 00:11:28;;;;;;;13.17;10.47;;;;;;;14.49;100.00;101698.94;5224665;28;20034;-67
2023/06/23 00:14:00;;;;;;;11.97;10.77;;;;;;;14.48;100.00;101691.09;5224420;28;20026;-67
2023/06/23 00:16:31;;;;;;;12.03;10.87;;;;;;;14.47;100.00;101698.09;5224612;28;20133;-67
2023/06/23 00:19:03;;;;;;;17.27;12.37;;;;;;;14.43;100.00;101699.03;5224649;28;20041;-67
2023/06/23 00:21:34;;;;;;;13.70;12.05;;;;;;;14.46;100.00;101713.84;5224880;28;20484;-67
2023/06/23 00:24:06;;;;;;;14.63;11.90;;;;;;;14.46;100.00;101705.97;5223927;28;20112;-66
2023/06/23 00:26:38;;;;;;;16.50;13.30;;;;;;;14.48;100.00;101705.06;5224494;28;20080;-67
2023/06/23 00:29:10;;;;;;;18.50;13.07;;;;;;;14.47;100.00;101705.94;5223055;28;20408;-66
2023/06/23 00:31:42;;;;;;;;;;;;;;;14.41;100.00;101721.81;5225082;28;20070;-67
2023/06/23 00:34:14;;;;;;;17.40;13.27;;;;;;;14.43;100.00;101712.16;5223901;28;19963;-67
2023/06/23 00:36:45;;;;;;;17.00;13.10;;;;;;;14.42;100.00;101715.66;5223746;28;20109;-67
2023/06/23 00:39:16;;;;;;;20.93;14.87;;;;;;;14.39;100.00;101726.19;5224242;28;20034;-67
2023/06/23 00:41:48;;;;;;;19.17;15.10;;;;;;;14.40;100.00;101730.56;5223821;28;20040;-67
2023/06/23 00:44:20;;;;;;;18.90;15.83;;;;;;;14.40;100.00;101728.78;5223595;28;20037;-66
2023/06/23 00:46:51;;;;;;;18.70;16.80;;;;;;;14.37;100.00;101731.44;5223867;28;20728;-68
2023/06/23 00:49:22;;;;;;;18.53;15.47;;;;;;;14.37;100.00;101731.44;5223385;28;20061;-67
2023/06/23 00:51:56;;;;;;;23.30;16.57;;;;;;;14.38;100.00;101737.59;5223660;28;20057;-67
2023/06/23 00:54:28;;;;;;;17.90;15.77;;;;;;;14.34;100.00;101741.97;5223900;28;20026;-66
2023/06/23 00:56:59;;;;;;;23.02;16.58;;;;;;;14.30;100.00;101742.91;5223742;28;20037;-66
2023/06/23 00:59:31;;;;;;;18.37;16.37;;;;;;;14.30;100.00;101749.94;5222584;28;20037;-67
2023/06/23 01:02:03;;;;;;;19.90;17.40;;;;;;;14.28;100.00;101765.69;5222638;28;20492;-68
2023/06/23 01:04:34;;;;;;;20.20;17.87;;;;;;;14.27;100.00;101765.72;5222380;28;20026;-67
2023/06/23 01:07:26;;;;;;;23.90;18.20;;;;;;;14.25;100.00;101772.69;5223521;28;20034;-67
2023/06/23 01:10:08;;;;;;;23.53;19.93;;;;;;;14.26;100.00;101774.44;5223600;28;20038;-67
2023/06/23 01:13:23;;;;;;;23.60;19.60;;;;;;;14.23;100.00;101780.59;5223100;28;20022;-67
2023/06/23 01:16:01;;;;;;;25.08;19.80;;;;;;;14.24;100.00;101779.72;5223080;28;20041;-68
2023/06/23 01:18:51;;;;;;;26.27;20.35;;;;;;;14.23;100.00;101776.22;5223282;28;20022;-67
2023/06/23 01:21:39;;;;;;;25.52;22.23;;;;;;;14.20;100.00;101776.25;5222794;28;20424;-68
2023/06/23 01:24:18;;;;;;;28.10;22.60;;;;;;;14.24;100.00;101769.22;5223363;28;20041;-67
2023/06/23 01:27:11;;;;;;;29.00;23.65;;;;;;;14.25;100.00;101768.34;5223071;28;20033;-67
2023/06/23 01:29:47;;;;;;;30.42;23.67;;;;;;;14.20;100.00;101780.66;5223505;28;20397;-67
2023/06/23 01:32:26;;;;;;;28.40;23.25;;;;;;;14.22;100.00;101789.34;5222890;28;20026;-67
2023/06/23 01:35:05;;;;;;;32.30;24.70;;;;;;;14.18;100.00;101785.91;5223411;28;20113;-68
2023/06/23 01:37:41;;;;;;;32.03;25.70;;;;;;;14.18;100.00;101788.53;5223114;28;20034;-67
2023/06/23 01:40:17;;;;;;;30.60;25.25;;;;;;;14.17;100.00;101786.78;5223248;28;20170;-67
2023/06/23 01:42:56;;;;;;;28.95;25.23;;;;;;;14.12;100.00;101779.84;5222702;28;20038;-67
2023/06/23 01:45:28;;;;;;;35.33;26.25;;;;;;;14.15;100.00;101792.91;5223016;28;20528;-67
2023/06/23 01:48:06;;;;;;;41.10;27.77;;;;;;;14.14;100.00;101794.69;5221352;28;20043;-67
2023/06/23 01:50:40;;;;;;;35.28;27.80;;;;;;;14.13;100.00;101795.56;5222605;28;20158;-67
2023/06/23 01:53:12;;;;;;;33.40;27.58;;;;;;;14.13;100.00;101792.94;5222218;28;20026;-67
2023/06/23 01:55:44;;;;;;;32.70;27.60;;;;;;;14.09;100.00;101799.13;5223061;28;20377;-67
2023/06/23 01:58:16;;;;;;;34.20;28.63;;;;;;;14.05;100.00;101805.28;5222230;28;20030;-67
2023/06/23 02:00:49;;;;;;;33.10;27.45;;;;;;;14.02;100.00;101808.81;5222471;28;20038;-67
2023/06/23 02:03:22;;;;;;;32.05;28.33;;;;;;;13.99;100.00;101810.56;5222401;28;20030;-67
2023/06/23 02:05:55;;;;;;;34.90;28.38;;;;;;;13.96;100.00;101807.97;5222611;28;20057;-68
2023/06/23 02:08:28;;;;;;;35.47;29.48;;;;;;;14.01;100.00;101811.44;5222141;28;20407;-68
2023/06/23 02:11:01;;;;;;;32.38;28.88;;;;;;;13.98;100.00;101808.84;5222047;28;20080;-67
2023/06/23 02:13:33;;;;;;;32.38;28.58;;;;;;;13.96;100.00;101823.72;5222258;28;20041;-67
2023/06/23 02:16:07;;;;;;;36.23;28.57;;;;;;;13.97;100.00;101828.06;5221753;28;20058;-67
2023/06/23 02:18:40;;;;;;;32.65;28.77;;;;;;;13.94;100.00;101831.63;5222388;28;20503;-67
2023/06/23 02:21:14;;;;;;;34.58;29.13;;;;;;;13.96;100.00;101834.19;5222284;28;20088;-67
2023/06/23 02:23:45;;;;;;;36.78;31.27;;;;;;;13.94;100.00;101842.09;5222545;28;20065;-67
2023/06/23 02:26:18;;;;;;;33.13;28.83;;;;;;;13.93;100.00;101840.34;5221208;28;20062;-67
2023/06/23 02:28:51;;;;;;;35.92;30.50;;;;;;;13.94;100.00;101851.69;5221904;28;20033;-66
2023/06/23 02:31:23;;;;;;;34.88;28.98;;;;;;;13.90;100.00;101850.88;5222295;28;20060;-66
2023/06/23 02:33:55;;;;;;;;;;;;;;;13.84;100.00;101858.78;5221894;28;20109;-67
2023/06/23 02:36:34;;;;;;;34.53;28.63;;;;;;;13.82;100.00;101858.78;5221756;28;20064;-67
2023/06/23 02:39:06;;;;;;;33.47;29.23;;;;;;;13.76;100.00;101873.72;5221762;28;20029;-67
2023/06/23 02:41:39;;;;;;;32.33;27.17;;;;;;;13.71;100.00;101878.13;5221891;28;20037;-67
2023/06/23 02:44:14;;;;;;;37.78;31.02;;;;;;;13.76;100.00;101885.06;5221926;28;20033;-67
2023/06/23 02:46:51;;;;;;;37.08;31.80;;;;;;;13.75;100.00;101878.09;5221595;28;20092;-66
2023/06/23 02:49:28;;;;;;;41.75;33.13;;;;;;;13.71;100.00;101880.75;5221934;28;20026;-66
2023/06/23 02:52:01;;;;;;;40.83;33.10;;;;;;;13.72;100.00;101885.09;5221306;28;20466;-67
2023/06/23 02:54:39;;;;;;;40.03;33.65;;;;;;;13.72;100.00;101883.34;5221209;28;20084;-66
2023/06/23 02:57:14;;;;;;;42.30;34.45;;;;;;;13.66;100.00;101889.50;5222108;28;20033;-66
2023/06/23 02:59:49;;;;;;;48.38;35.17;;;;;;;13.68;100.00;101892.09;5221769;28;20484;-66
2023/06/23 03:02:24;;;;;;;43.83;35.17;;;;;;;13.66;100.00;101896.50;5221669;28;20050;-67
2023/06/23 03:04:57;;;;;;;46.33;36.72;;;;;;;13.67;100.00;101890.38;5221934;28;20108;-67
2023/06/23 03:07:29;;;;;;;50.13;38.15;;;;;;;13.68;100.00;101890.38;5221539;28;20083;-67
2023/06/23 03:10:01;;;;;;;46.60;38.70;;;;;;;13.67;100.00;101900.88;5221604;28;20049;-66
2023/06/23 03:12:32;;;;;;;42.97;38.10;;;;;;;13.65;100.00;101898.25;5221331;28;20476;-66
2023/06/23 03:15:05;;;;;;;49.77;39.43;;;;;;;13.63;100.00;101888.66;5225124;28;20144;-67
2023/06/23 03:17:40;;;;;;;50.63;38.60;;;;;;;13.63;100.00;101894.75;5224851;28;20750;-67
2023/06/23 03:20:35;;;;;;;50.35;39.78;;;;;;;13.64;100.00;101893.03;5225454;28;20026;-67
2023/06/23 03:23:11;;;;;;;52.30;42.17;;;;;;;13.65;100.00;101890.41;5225855;28;20425;-67
2023/06/23 03:25:46;;;;;;;51.88;41.05;;;;;;;13.65;100.00;101900.88;5225159;28;20029;-67
2023/06/23 03:28:25;;;;;;;52.88;41.45;;;;;;;13.64;100.00;101900.88;5225339;28;20481;-67
2023/06/23 03:31:09;;;;;;;49.53;40.40;;;;;;;13.64;100.00;101911.38;5225590;28;20365;-67
2023/06/23 03:33:42;;;;;;;52.38;41.45;;;;;;;13.59;100.00;101908.78;5225176;28;20050;-67
2023/06/23 03:36:21;;;;;;;51.72;41.58;;;;;;;13.60;100.00;101907.88;5223950;28;20444;-67
2023/06/23 03:39:15;;;;;;;52.15;41.75;;;;;;;13.59;100.00;101910.53;5224843;28;20121;-67
2023/06/23 03:41:48;;;;;;;51.47;42.33;;;;;;;13.59;100.00;101913.16;5225858;28;20049;-67
2023/06/23 03:44:31;;;;;;;52.60;42.22;;;;;;;13.63;100.00;101915.72;5225076;28;20388;-67
2023/06/23 03:47:09;;;;;;;49.55;41.47;;;;;;;13.64;100.00;101906.13;5225306;28;20032;-67
2023/06/23 03:49:52;;;;;;;51.75;39.90;;;;;;;13.60;100.00;101900.03;5224995;28;20030;-67
2023/06/23 03:52:27;;;;;;;52.40;38.92;;;;;;;13.65;100.00;101902.59;5224955;28;20041;-67
2023/06/23 03:55:01;;;;;;;47.78;39.28;;;;;;;13.63;100.00;101902.63;5225400;28;20026;-68
2023/06/23 03:57:33;;;;;;;47.50;39.60;;;;;;;13.64;100.00;101904.38;5225082;28;20026;-67
2023/06/23 04:00:06;;;;;;;51.08;39.60;;;;;;;13.64;100.00;101919.22;5224793;28;20109;-67
2023/06/23 04:02:39;;;;;;;;;;;;;;;13.59;100.00;101921.03;5225444;28;20112;-67
2023/06/23 04:05:13;;;;;;;47.35;37.67;;;;;;;13.62;100.00;101924.47;5224717;28;20363;-67
2023/06/23 04:07:45;;;;;;;48.15;37.88;;;;;;;13.63;100.00;101928.81;5224636;28;20477;-67
2023/06/23 04:10:18;;;;;;;;;;;;;;;13.57;100.00;101936.75;5225034;28;20124;-67
2023/06/23 04:12:51;;;;;;;;;;;;;;;13.61;100.00;101934.97;5224471;28;19909;-67
2023/06/23 04:15:24;;;;;;;47.35;36.40;;;;;;;13.72;100.00;101938.38;5224303;28;20364;-67
2023/06/23 04:17:58;;;;;;;44.15;37.47;;;;;;;13.68;100.00;101942.78;5224505;28;20469;-67
2023/06/23 04:20:31;;;;;;;52.38;39.83;;;;;;;13.68;100.00;101941.88;5224922;28;20037;-67
2023/06/23 04:23:04;;;;;;;50.00;39.53;;;;;;;13.70;100.00;101945.41;5224352;28;20033;-67
2023/06/23 04:25:37;;;;;;;48.60;38.40;;;;;;;13.78;100.00;101945.31;5224736;28;20057;-68
2023/06/23 04:28:12;;;;;;;46.15;38.33;;;;;;;13.84;100.00;101953.13;5223910;28;20037;-67
2023/06/23 04:30:45;;;;;;;52.90;41.58;;;;;;;13.91;100.00;101959.19;5224635;28;20049;-67
2023/06/23 04:33:16;;;;;;;;;;;;;;;13.89;100.00;101959.19;5223170;28;20026;-67
2023/06/23 04:35:52;;;;;;;51.72;39.92;;;;;;;13.98;100.00;101956.50;5224066;28;20387;-67
2023/06/23 04:38:28;;;;;;;48.53;39.13;;;;;;;14.00;100.00;101959.13;5224004;28;20042;-67
2023/06/23 04:41:07;;;;;;;48.40;40.38;;;;;;;14.08;100.00;101966.94;5224249;28;20080;-67
2023/06/23 04:43:42;;;;;;;52.70;39.17;;;;;;;14.13;100.00;101973.00;5224113;28;20037;-66
2023/06/23 04:46:21;;;;;;;54.10;40.80;;;;;;;14.17;100.00;101972.97;5223479;28;20094;-67
2023/06/23 04:49:19;;;;;;;51.13;40.25;;;;;;;14.21;100.00;101977.28;5223881;28;20037;-67
2023/06/23 04:51:54;;;;;;;46.95;38.72;;;;;;;14.21;100.00;101971.19;5223785;28;20030;-67
2023/06/23 04:54:29;;;;;;;48.63;39.70;;;;;;;14.28;100.00;101970.25;5223618;28;20033;-67
2023/06/23 04:57:04;;;;;;;49.10;40.22;;;;;;;14.34;100.00;101970.16;5224545;28;20416;-67
2023/06/23 04:59:40;;;;;;;47.17;39.92;;;;;;;14.34;100.00;101974.56;5224138;28;20033;-66
2023/06/23 05:02:13;;;;;;;52.20;39.67;;;;;;;14.41;100.00;101978.88;5223570;28;20120;-67
2023/06/23 05:04:47;;;;;;;48.40;40.35;;;;;;;14.46;100.00;101989.31;5223392;28;20076;-66
2023/06/23 05:07:20;;;;;;;47.47;41.60;;;;;;;14.53;100.00;101989.22;5223159;28;20036;-68
2023/06/23 05:09:52;;;;;;;;;;;;;;;14.56;100.00;102002.31;5206155;28;20068;-69
2023/06/23 05:12:26;;;;;;;52.40;39.77;;;;;;;14.61;100.00;102002.31;5222977;28;19917;-68
2023/06/23 05:15:00;;;;;;;51.47;39.75;;;;;;;14.70;100.00;102006.59;5222939;28;20066;-68
2023/06/23 05:17:34;;;;;;;50.63;37.83;;;;;;;14.72;100.00;102003.06;5223106;28;20084;-67
2023/06/23 05:20:09;;;;;;;50.30;39.55;;;;;;;14.82;100.00;102003.84;5223486;28;20034;-67
2023/06/23 05:22:45;;;;;;;49.10;40.08;;;;;;;14.82;100.00;102010.84;5223297;28;20061;-67
2023/06/23 05:25:19;;;;;;;46.92;38.67;;;;;;;14.87;100.00;102015.16;5222981;28;20072;-67
2023/06/23 05:27:57;;;;;;;51.65;39.35;;;;;;;14.98;100.00;102014.19;5223487;28;20034;-67
2023/06/23 05:30:30;;;;;;;48.92;40.50;;;;;;;15.04;100.00;102011.50;5223729;28;20039;-68
2023/06/23 05:33:02;;;;;;;47.20;38.13;;;;;;;15.12;100.00;102020.16;5220658;28;20038;-68
2023/06/23 05:35:34;;;;;;;;;;;;;;;15.18;100.00;102016.56;5222640;28;20038;-67
2023/06/23 05:38:08;;;;;;;54.57;39.40;;;;;;;15.27;100.00;102011.19;5222623;28;19989;-67
2023/06/23 05:40:40;;;;;;;47.67;40.22;;;;;;;15.32;100.00;102020.75;5223075;28;20034;-67
2023/06/23 05:43:11;;;;;;;66.67;59.23;;;;;;;15.42;100.00;102020.63;5222581;28;20081;-67
2023/06/23 05:45:43;;;;;;;46.77;38.77;;;;;;;15.48;100.00;102015.31;5222718;28;20057;-67
2023/06/23 05:48:21;;;;;;;44.83;38.03;;;;;;;15.53;100.00;102020.50;5221675;28;20038;-66
2023/06/23 05:50:54;;;;;;;44.50;39.30;;;;;;;15.62;100.00;102029.13;5223259;28;20480;-66
2023/06/23 05:53:25;;;;;;;;;;;;;;;15.67;100.00;102034.31;5222966;28;20030;-66
2023/06/23 05:56:17;;;;;;;49.20;39.88;;;;;;;15.76;100.00;102039.47;5222374;28;19920;-67
2023/06/23 05:58:56;;;;;;;47.90;39.00;;;;;;;15.87;100.00;102034.03;5222441;28;20026;-67
2023/06/23 06:01:30;;;;;;;48.00;38.45;;;;;;;15.98;100.00;102037.38;5221189;28;20063;-66
2023/06/23 06:04:09;;;;;;;45.08;39.50;;;;;;;16.04;100.00;102045.19;5222685;28;20149;-67
2023/06/23 06:06:42;;;;;;;47.33;39.30;;;;;;;16.10;100.00;102040.72;5222117;28;20055;-67
2023/06/23 06:09:15;;;;;;;45.88;38.90;;;;;;;16.14;100.00;102037.16;5222105;28;20032;-67
2023/06/23 06:11:49;;;;;;;45.03;38.10;;;;;;;16.24;100.00;102051.88;5222127;28;20120;-68
2023/06/23 06:14:22;;;;;;;46.03;37.50;;;;;;;16.34;100.00;102056.13;5221953;28;20030;-67
2023/06/23 06:16:55;;;;;;;47.55;37.85;;;;;;;16.45;100.00;102068.22;5220720;28;20085;-68
